ADDS METAR Data INFO
IDs: Format: Raw Decoded Include TAF

Data at: 0145 UTC 18 Oct 2017

KDAW 180051Z AUTO 00000KT 10SM CLR 06/01 A3019 RMK AO2 SLP223 T00610006
KDAW 172351Z AUTO 00000KT 10SM CLR 08/01 A3018 RMK AO2 SLP220 T00780006 10139 20078 53002
KDAW 172251Z AUTO 00000KT 10SM CLR 09/00 A3017 RMK AO2 SLP216 T00890000
KDAW 172151Z AUTO 00000KT 10SM CLR 10/00 A3017 RMK AO2 SLP216 T01000000
KDAW 172051Z AUTO 00000KT 10SM CLR 13/M02 A3017 RMK AO2 SLP216 T01281017 56013
KDAW 171951Z AUTO 00000KT 10SM CLR 13/M02 A3018 RMK AO2 SLP219 T01331022
KDAW 171851Z AUTO VRB03KT 10SM CLR 13/M02 A3019 RMK AO2 SLP222 T01331022
KDAW 171751Z AUTO VRB03KT 10SM CLR 13/M01 A3021 RMK AO2 SLP230 T01281011 10128 20011 58017
KDAW 171651Z AUTO VRB03KT 10SM CLR 12/M02 A3023 RMK AO2 SLP237 T01171017
KDAW 171551Z AUTO VRB04KT 10SM CLR 11/M01 A3026 RMK AO2 SLP246 T01061011
KDAW 171451Z AUTO 00000KT 10SM CLR 09/M01 A3026 RMK AO2 SLP247 T00891006 50000
KDAW 171351Z AUTO 31006KT 10SM CLR 07/00 A3028 RMK AO2 SLP252 T00720000
KDAW 171251Z AUTO 30004KT 10SM CLR 04/00 A3028 RMK AO2 SLP252 T00440000
KDAW 171151Z AUTO 31006KT 10SM CLR 01/M01 A3026 RMK AO2 SLP248 T00061011 10028 21011 53019
KDAW 171051Z AUTO 31004KT 10SM CLR 01/M02 A3025 RMK AO2 SLP241 T00061017
KDAW 170951Z AUTO 33004KT 10SM CLR M01/M02 A3022 RMK AO2 SLP234 T10061022
KDAW 170851Z AUTO 31006KT 10SM CLR 01/M02 A3021 RMK AO2 SLP228 T00061017 53015
KDAW 170751Z AUTO 31006KT 10SM FEW055 00/M02 A3019 RMK AO2 SLP222 T00001017
KDAW 170651Z AUTO 32005KT 10SM CLR 01/M02 A3017 RMK AO2 SLP217 T00061017
KDAW 170551Z AUTO 32006KT 10SM FEW050 02/M01 A3016 RMK AO2 SLP212 T00171011 10078 20011 51009
KDAW 170451Z AUTO 32005KT 10SM SCT040 02/M01 A3015 RMK AO2 SLP209 T00221011 402060017
KDAW 170351Z AUTO 30005KT 10SM BKN047 04/M01 A3014 RMK AO2 SLP206 T00441006
KDAW 170251Z AUTO 30004KT 10SM FEW042 FEW050 04/00 A3013 RMK AO2 SLP202 T00440000 51023
KDAW 170151Z AUTO 31004KT 10SM CLR 05/00 A3012 RMK AO2 SLP197 T00500000
KDAW 170051Z AUTO 31007KT 10SM BKN043 06/00 A3009 RMK AO2 SLP188 T00610000
KDAW 162351Z AUTO 31012KT 10SM OVC040 08/01 A3006 RMK AO2 SLP178 T00780006 10122 20078 51027
KDAW 162251Z AUTO 31009G17KT 10SM CLR 08/01 A3003 RMK AO2 SLP168 T00830011
KDAW 162151Z AUTO 30011KT 10SM FEW042 09/02 A3002 RMK AO2 SLP162 T00940017
KDAW 162051Z AUTO 31015KT 10SM CLR 10/02 A2998 RMK AO2 SLP150 T01000022 53012
KDAW 161951Z AUTO 30013G19KT 10SM CLR 11/02 A2995 RMK AO2 SLP140 T01110022
KDAW 161851Z AUTO 32013KT 10SM CLR 12/03 A2994 RMK AO2 SLP135 T01170028
KDAW 161751Z AUTO 31007KT 10SM CLR 12/02 A2995 RMK AO2 SLP137 T01220022 10139 20106 51014
KDAW 161651Z AUTO 31013G19KT 10SM FEW033 12/03 A2993 RMK AO2 SLP132 T01220033
KDAW 161551Z AUTO 32012KT 10SM FEW032 12/03 A2993 RMK AO2 SLP133 T01170033
KDAW 161451Z AUTO 31014KT 10SM CLR 11/03 A2990 RMK AO2 SLP123 T01110028 51028
KDAW 161351Z AUTO 31014G22KT 10SM CLR 11/03 A2989 RMK AO2 SLP117 T01110028